Time;durP1;ratioP1;P1;durP2;ratioP2;P2;SDS_P1;SDS_P2;PMS_P1;PMS_P2;Temp;Humidity;BMP_temperature;BMP_pressure;BME280_temperature;BME280_humidity;BME280_pressure;Samples;Min_cycle;Max_cycle;Signal;HPM_P1;HPM_P2
2023/01/04 00:00:50;;;;;;;21.95;10.90;;;;;;;4.41;100.00;97787.09;5007495;28;20092;-55
2023/01/04 00:03:17;;;;;;;39.13;17.55;;;;;;;4.40;100.00;97791.75;5006228;28;20095;-55
2023/01/04 00:05:44;;;;;;;63.25;28.40;;;;;;;4.48;100.00;97793.75;5006381;28;20480;-58
2023/01/04 00:08:10;;;;;;;28.92;13.60;;;;;;;4.09;100.00;97752.50;5007602;28;20168;-55
2023/01/04 00:10:37;;;;;;;23.08;9.93;;;;;;;4.41;100.00;97782.38;5007311;28;20049;-59
2023/01/04 00:13:04;;;;;;;20.65;10.20;;;;;;;4.38;100.00;97794.00;5007151;28;20054;-60
2023/01/04 00:15:30;;;;;;;20.92;10.38;;;;;;;4.35;100.00;97794.63;5005410;28;20148;-59
2023/01/04 00:17:57;;;;;;;22.73;10.77;;;;;;;3.56;100.00;97710.47;5007108;28;20144;-60
2023/01/04 00:20:24;;;;;;;19.38;9.57;;;;;;;4.14;100.00;97792.69;5007464;28;20057;-55
2023/01/04 00:22:50;;;;;;;17.38;9.70;;;;;;;4.28;100.00;97809.91;5007168;28;20069;-55
2023/01/04 00:25:17;;;;;;;17.90;8.88;;;;;;;3.69;100.00;97780.84;5006742;28;20448;-55
2023/01/04 00:27:44;;;;;;;20.98;9.43;;;;;;;3.36;100.00;97743.78;5006935;28;21067;-60
2023/01/04 00:30:11;;;;;;;29.67;11.95;;;;;;;3.83;98.41;97803.53;5005689;28;20078;-60
2023/01/04 00:32:37;;;;;;;20.30;9.77;;;;;;;3.63;98.21;97798.53;5005667;28;20479;-55
2023/01/04 00:35:04;;;;;;;23.98;10.90;;;;;;;3.42;99.38;97775.41;5007126;28;20178;-57
2023/01/04 00:37:31;;;;;;;15.68;8.32;;;;;;;3.61;100.00;97828.13;5006351;28;20085;-54
2023/01/04 00:39:57;;;;;;;13.25;7.78;;;;;;;3.48;100.00;97820.75;5007069;28;20097;-55
2023/01/04 00:42:24;;;;;;;20.10;7.97;;;;;;;3.53;100.00;97826.13;5005380;28;20500;-56
2023/01/04 00:44:51;;;;;;;16.05;7.78;;;;;;;3.58;100.00;97812.31;5006824;28;20085;-58
2023/01/04 00:47:17;;;;;;;44.03;18.42;;;;;;;3.62;100.00;97829.75;5006031;28;20107;-59
2023/01/04 00:49:44;;;;;;;20.35;9.40;;;;;;;3.61;100.00;97811.69;5007009;28;20116;-59
2023/01/04 00:52:11;;;;;;;22.42;10.80;;;;;;;3.55;100.00;97799.25;5006921;28;20433;-60
2023/01/04 00:54:37;;;;;;;18.73;9.38;;;;;;;3.72;100.00;97824.06;5006940;28;20445;-55
2023/01/04 00:57:04;;;;;;;40.38;17.23;;;;;;;3.77;100.00;97820.41;5005677;28;20122;-60
2023/01/04 00:59:30;;;;;;;32.83;15.45;;;;;;;3.59;100.00;97792.00;5005006;28;20056;-60
2023/01/04 01:01:57;;;;;;;59.30;29.85;;;;;;;3.76;100.00;97827.00;5004572;28;20524;-55
2023/01/04 01:04:24;;;;;;;42.25;20.58;;;;;;;3.84;100.00;97815.31;5006475;28;20050;-54
2023/01/04 01:06:51;;;;;;;33.95;14.48;;;;;;;3.85;100.00;97822.41;5005631;28;20530;-55
2023/01/04 01:09:21;;;;;;;31.60;14.75;;;;;;;3.59;100.00;97783.00;5005601;28;20060;-54
2023/01/04 01:11:49;;;;;;;22.45;10.35;;;;;;;3.39;100.00;97747.81;4986984;28;20061;-55
2023/01/04 01:14:19;;;;;;;25.80;10.35;;;;;;;3.67;100.00;97821.44;4986694;28;20054;-59
2023/01/04 01:16:46;;;;;;;24.00;9.63;;;;;;;3.75;100.00;97823.44;4993510;28;20141;-55
2023/01/04 01:19:25;;;;;;;22.70;9.48;;;;;;;3.64;100.00;97815.75;5005703;28;20041;-59
2023/01/04 01:21:52;;;;;;;18.05;8.98;;;;;;;3.62;100.00;97823.47;5005636;28;20068;-60
2023/01/04 01:24:19;;;;;;;21.70;8.77;;;;;;;3.58;100.00;97812.31;5005870;28;20092;-59
2023/01/04 01:26:46;;;;;;;14.38;8.15;;;;;;;3.51;100.00;97817.38;4999678;28;20157;-60
2023/01/04 01:29:13;;;;;;;15.13;8.10;;;;;;;3.13;100.00;97769.44;5006125;28;20504;-61
2023/01/04 01:31:40;;;;;;;16.98;8.00;;;;;;;3.51;100.00;97820.13;5005947;28;20115;-59
2023/01/04 01:34:08;;;;;;;13.75;8.15;;;;;;;3.06;100.00;97766.31;5005676;28;20053;-57
2023/01/04 01:36:35;;;;;;;19.73;9.68;;;;;;;3.37;100.00;97818.53;5005427;28;20508;-57
2023/01/04 01:39:02;;;;;;;21.92;10.27;;;;;;;3.28;100.00;97796.53;5005602;28;20054;-56
2023/01/04 01:41:32;;;;;;;23.58;12.05;;;;;;;3.22;100.00;97803.22;5005698;28;20050;-56
2023/01/04 01:44:02;;;;;;;21.48;10.30;;;;;;;3.20;100.00;97808.19;5005576;28;20050;-60
2023/01/04 01:46:40;;;;;;;23.45;11.73;;;;;;;3.12;100.00;97797.94;5005228;28;20061;-60
2023/01/04 01:49:45;;;;;;;25.58;12.48;;;;;;;3.25;100.00;97823.69;5005278;28;20282;-54
2023/01/04 01:52:20;;;;;;;25.70;11.88;;;;;;;3.21;100.00;97818.00;5003223;28;20148;-54
2023/01/04 01:54:52;;;;;;;33.50;14.60;;;;;;;3.30;100.00;97826.34;5005041;28;20045;-55
2023/01/04 01:57:24;;;;;;;31.08;15.27;;;;;;;3.28;100.00;97837.59;4983961;28;20476;-56
2023/01/04 01:59:56;;;;;;;34.25;15.30;;;;;;;3.32;100.00;97824.13;4997085;28;20058;-59
2023/01/04 02:02:23;;;;;;;32.90;15.20;;;;;;;3.35;100.00;97829.75;5003478;28;20093;-59
2023/01/04 02:04:50;;;;;;;34.58;16.67;;;;;;;3.16;100.00;97807.19;4992695;28;20068;-59
2023/01/04 02:07:24;;;;;;;37.53;17.88;;;;;;;3.34;100.00;97828.16;4983471;28;20060;-57
2023/01/04 02:09:51;;;;;;;39.15;19.02;;;;;;;3.35;100.00;97829.75;5016897;28;20046;-54
2023/01/04 02:12:17;;;;;;;38.20;19.88;;;;;;;3.37;100.00;97821.28;4989721;28;20463;-60
2023/01/04 02:14:47;;;;;;;36.78;17.52;;;;;;;3.38;100.00;97840.13;5009014;28;20143;-55
2023/01/04 02:17:25;;;;;;;36.35;17.77;;;;;;;3.32;100.00;97835.06;5005148;28;20058;-60
2023/01/04 02:20:29;;;;;;;40.00;18.63;;;;;;;3.36;100.00;97827.84;5003469;28;20133;-56
2023/01/04 02:23:16;;;;;;;31.50;16.05;;;;;;;3.36;100.00;97814.97;5005271;28;20590;-60
2023/01/04 02:26:07;;;;;;;30.73;13.98;;;;;;;3.44;100.00;97822.47;5004639;28;20046;-59
2023/01/04 02:28:58;;;;;;;21.40;11.93;;;;;;;3.35;100.00;97818.81;5003662;28;20082;-54
2023/01/04 02:31:42;;;;;;;26.65;14.25;;;;;;;3.21;100.00;97807.06;3927064;28;5002116;-59
2023/01/04 02:34:42;;;;;;;31.55;14.32;;;;;;;3.40;100.00;97812.44;4946781;28;20055;-59
2023/01/04 02:38:10;;;;;;;23.30;13.93;;;;;;;3.33;100.00;97821.06;4946146;28;20059;-55
2023/01/04 02:40:47;;;;;;;29.15;12.75;;;;;;;3.19;100.00;97798.38;4944406;28;20435;-60
2023/01/04 02:46:28;;;;;;;19.13;10.73;;;;;;;2.92;100.00;97831.19;4945814;28;20580;-55
2023/01/04 02:51:43;;;;;;;19.17;8.63;;;;;;;2.41;98.51;97754.72;4949521;28;20527;-54
2023/01/04 02:54:14;;;;;;;23.55;8.13;;;;;;;2.15;99.23;97739.06;4965356;28;20053;-55
2023/01/04 02:56:56;;;;;;;13.23;7.18;;;;;;;2.69;100.00;97821.19;4965119;28;20456;-55
2023/01/04 02:59:33;;;;;;;13.63;7.10;;;;;;;2.58;100.00;97827.94;4965069;28;20086;-55
2023/01/04 03:08:41;;;;;;;22.95;10.10;;;;;;;2.12;100.00;97756.84;4965915;28;20051;-54
2023/01/04 03:14:01;;;;;;;21.20;9.65;;;;;;;2.48;100.00;97830.88;4965124;28;20058;-58
2023/01/04 03:16:49;;;;;;;20.33;9.52;;;;;;;2.41;100.00;97824.97;4963727;28;20529;-55
2023/01/04 03:35:21;;;;;;;18.13;8.73;;;;;;;2.49;100.00;97821.56;4945593;29;20055;-59
2023/01/04 03:36:19;;;;;;;17.25;8.20;;;;;;;2.57;100.00;97842.75;4964494;28;20090;-55
2023/01/04 03:50:46;;;;;;;18.92;8.93;;;;;;;2.45;100.00;97836.94;4964636;28;20109;-59
2023/01/04 03:53:13;;;;;;;38.85;11.65;;;;;;;2.53;100.00;97855.41;4965055;28;20141;-55
2023/01/04 03:55:42;;;;;;;22.70;11.38;;;;;;;2.55;100.00;97839.50;4963172;28;20477;-55
2023/01/04 03:58:10;;;;;;;29.92;13.75;;;;;;;2.59;100.00;97843.25;4964550;28;20200;-54
2023/01/04 04:00:37;;;;;;;35.60;18.60;;;;;;;2.47;100.00;97807.38;4964988;28;20102;-54
2023/01/04 04:03:08;;;;;;;30.88;15.63;;;;;;;2.50;100.00;97850.50;4964121;28;20610;-55
2023/01/04 04:08:25;;;;;;;38.97;15.80;;;;;;;2.41;100.00;97846.84;4964845;28;20138;-58
2023/01/04 04:10:53;;;;;;;32.78;13.15;;;;;;;2.39;100.00;97859.97;4964638;28;20525;-54
2023/01/04 04:13:20;;;;;;;38.17;16.50;;;;;;;1.62;100.00;97724.06;4964327;28;20513;-55
2023/01/04 04:15:47;;;;;;;41.17;15.43;;;;;;;2.38;100.00;97850.16;4965053;28;20050;-59
2023/01/04 04:18:14;;;;;;;32.17;14.27;;;;;;;2.36;100.00;97855.94;4962908;28;20082;-55
2023/01/04 04:20:40;;;;;;;29.90;14.27;;;;;;;2.42;100.00;97859.41;4962885;28;20051;-55
2023/01/04 04:23:07;;;;;;;29.45;14.68;;;;;;;1.79;100.00;97768.06;4966318;28;20495;-55
2023/01/04 04:25:33;;;;;;;22.10;12.30;;;;;;;2.34;100.00;97863.63;4967106;28;20150;-54
2023/01/04 04:28:00;;;;;;;25.50;12.32;;;;;;;2.20;100.00;97851.00;4967990;28;20058;-58
2023/01/04 04:30:27;;;;;;;26.52;14.05;;;;;;;2.32;100.00;97865.84;4967156;28;20050;-54
2023/01/04 04:32:53;;;;;;;24.05;12.88;;;;;;;2.39;100.00;97865.44;4967477;28;20541;-55
2023/01/04 04:35:20;;;;;;;27.92;12.95;;;;;;;2.20;100.00;97829.13;4967912;28;20418;-59
2023/01/04 04:37:47;;;;;;;21.40;10.50;;;;;;;2.24;100.00;97857.50;4967684;28;20058;-60
2023/01/04 04:41:37;;;;;;;21.60;10.50;;;;;;;1.83;100.00;97883.78;4967598;28;20156;-59
2023/01/04 04:43:02;;;;;;;22.85;11.50;;;;;;;2.00;100.00;97884.09;4966919;28;20114;-59
2023/01/04 04:45:29;;;;;;;21.77;12.45;;;;;;;2.06;100.00;97882.91;4948402;28;20129;-59
2023/01/04 04:47:55;;;;;;;27.65;13.57;;;;;;;2.02;100.00;97884.63;4948320;28;20540;-55
2023/01/04 04:50:22;;;;;;;26.42;13.43;;;;;;;1.58;100.00;97836.59;4952654;28;20599;-58
2023/01/04 04:52:49;;;;;;;36.20;17.50;;;;;;;2.04;100.00;97885.16;4967375;28;20121;-54
2023/01/04 04:55:21;;;;;;;31.90;14.75;;;;;;;2.02;100.00;97892.81;4967473;28;20534;-59
2023/01/04 04:57:48;;;;;;;41.70;17.15;;;;;;;1.91;100.00;97875.75;4967350;28;20062;-59
2023/01/04 05:00:15;;;;;;;44.05;18.00;;;;;;;2.03;100.00;97894.44;4967410;28;20047;-57
2023/01/04 05:02:41;;;;;;;46.92;19.42;;;;;;;1.94;100.00;97893.47;4966997;28;20943;-54
2023/01/04 05:05:08;;;;;;;39.97;18.75;;;;;;;2.06;100.00;97900.13;4967164;28;20085;-57
2023/01/04 05:07:35;;;;;;;37.47;19.73;;;;;;;2.03;100.00;97905.34;4967543;28;20524;-60
2023/01/04 05:10:02;;;;;;;48.35;21.67;;;;;;;1.27;100.00;97809.97;4967216;28;20059;-59
2023/01/04 05:15:21;;;;;;;46.83;25.42;;;;;;;1.80;100.00;97857.06;4967250;28;20058;-55
2023/01/04 05:17:47;;;;;;;58.20;29.48;;;;;;;2.01;100.00;97880.28;4965336;28;20489;-59
2023/01/04 05:20:14;;;;;;;66.38;32.78;;;;;;;1.44;100.00;97816.59;4966736;28;20077;-54
2023/01/04 05:22:41;;;;;;;50.88;26.33;;;;;;;1.86;100.00;97883.19;4966697;28;20058;-59
2023/01/04 05:25:08;;;;;;;41.25;21.38;;;;;;;1.97;100.00;97879.22;4967111;28;20469;-59
2023/01/04 05:27:35;;;;;;;40.00;19.90;;;;;;;2.00;100.00;97909.50;4966468;28;20074;-55
2023/01/04 05:32:49;;;;;;;40.63;21.10;;;;;;;2.09;100.00;97894.06;4967176;28;20063;-54
2023/01/04 05:35:16;;;;;;;46.80;23.40;;;;;;;2.14;100.00;97902.19;4966374;28;20141;-59
2023/01/04 05:37:42;;;;;;;54.25;26.35;;;;;;;2.17;100.00;97895.31;4966414;28;20062;-61
2023/01/04 05:40:09;;;;;;;66.13;32.17;;;;;;;2.21;100.00;97901.81;4966375;28;20050;-60
2023/01/04 05:42:36;;;;;;;75.43;36.65;;;;;;;2.33;100.00;97896.72;4966596;28;20054;-61
2023/01/04 05:45:03;;;;;;;75.93;34.78;;;;;;;1.72;100.00;97803.09;4965167;28;20055;-55
2023/01/04 05:47:29;;;;;;;64.03;29.30;;;;;;;2.26;100.00;97904.50;4965882;28;20078;-60
2023/01/04 05:49:56;;;;;;;56.10;26.75;;;;;;;2.13;100.00;97899.75;4966441;28;20066;-55
2023/01/04 05:52:23;;;;;;;56.38;28.52;;;;;;;2.24;100.00;97913.00;4965217;28;20050;-60
2023/01/04 05:54:50;;;;;;;83.45;38.30;;;;;;;2.32;100.00;97925.16;4966181;28;20055;-60
2023/01/04 05:57:16;;;;;;;84.68;40.28;;;;;;;2.37;100.00;97922.38;4968264;28;20230;-58
2023/01/04 05:59:43;;;;;;;71.63;34.33;;;;;;;2.41;100.00;97928.84;4983312;28;20152;-60
2023/01/04 06:02:22;;;;;;;53.83;23.58;;;;;;;1.46;100.00;97868.97;4985552;28;20058;-56
2023/01/04 06:04:49;;;;;;;48.17;22.65;;;;;;;1.49;100.00;97894.88;4983867;28;20046;-61
2023/01/04 06:07:24;;;;;;;42.58;21.73;;;;;;;1.96;100.00;97932.25;4985438;28;20687;-55
2023/01/04 06:09:50;;;;;;;53.42;24.55;;;;;;;2.04;100.00;97943.31;4985477;28;20495;-60
2023/01/04 06:12:17;;;;;;;54.97;24.27;;;;;;;2.17;100.00;97941.78;4977405;28;20055;-55
2023/01/04 06:14:44;;;;;;;48.13;23.05;;;;;;;2.23;100.00;97926.94;4965468;28;20062;-56
2023/01/04 06:17:10;;;;;;;54.58;27.67;;;;;;;2.38;100.00;97940.38;4966224;28;20091;-60
2023/01/04 06:19:37;;;;;;;58.10;28.15;;;;;;;2.47;100.00;97944.06;4966010;28;20114;-55
2023/01/04 06:22:04;;;;;;;81.35;38.17;;;;;;;2.48;100.00;97942.97;4965428;28;20105;-61
2023/01/04 06:24:30;;;;;;;131.07;61.53;;;;;;;2.66;100.00;97948.44;4964965;28;20097;-60
2023/01/04 06:26:57;;;;;;;71.35;35.92;;;;;;;2.50;100.00;97932.53;4965788;28;20113;-60
2023/01/04 06:29:24;;;;;;;55.92;22.52;;;;;;;2.70;100.00;97954.13;4965936;28;20051;-60
2023/01/04 06:31:50;;;;;;;73.53;28.05;;;;;;;2.16;100.00;97845.34;4965449;28;20049;-61
2023/01/04 06:34:17;;;;;;;112.97;51.25;;;;;;;2.94;100.00;97947.41;4959525;28;20047;-59
2023/01/04 06:36:44;;;;;;;164.90;76.35;;;;;;;2.79;100.00;97897.59;4968152;28;20091;-56
2023/01/04 06:39:10;;;;;;;180.23;82.20;;;;;;;3.02;100.00;97913.06;4965615;28;20062;-61
2023/01/04 06:41:37;;;;;;;171.15;85.47;;;;;;;3.38;100.00;97933.22;4974165;28;20070;-61
2023/01/04 06:44:04;;;;;;;134.32;70.60;;;;;;;3.40;100.00;97925.50;4975996;28;20058;-59
2023/01/04 06:46:30;;;;;;;135.32;70.00;;;;;;;3.30;100.00;97920.25;4976431;28;20574;-62
2023/01/04 06:48:57;;;;;;;102.22;55.42;;;;;;;3.74;100.00;97925.94;4973029;28;20516;-63
2023/01/04 06:51:24;;;;;;;77.50;43.30;;;;;;;3.59;100.00;97896.09;4992176;28;20160;-54
2023/01/04 06:53:50;;;;;;;81.45;42.85;;;;;;;3.93;100.00;97961.44;4965529;28;20054;-61
2023/01/04 06:56:17;;;;;;;100.18;55.60;;;;;;;3.21;100.00;97963.09;4968137;28;20536;-59
2023/01/04 06:58:44;;;;;;;92.40;47.60;;;;;;;3.54;100.00;97963.88;4984335;28;20084;-59
2023/01/04 07:01:10;;;;;;;101.38;55.40;;;;;;;3.81;100.00;97948.25;4975288;28;20496;-60
2023/01/04 07:03:37;;;;;;;95.78;41.30;;;;;;;3.95;100.00;97953.75;4967596;28;20063;-64
2023/01/04 07:06:05;;;;;;;78.75;32.45;;;;;;;4.12;100.00;97953.94;4976921;28;20054;-64
2023/01/04 07:08:33;;;;;;;76.88;33.08;;;;;;;4.35;100.00;97950.94;4967966;28;20047;-56
2023/01/04 07:11:00;;;;;;;65.05;26.52;;;;;;;4.54;98.01;97957.09;4973645;28;20070;-59
2023/01/04 07:13:27;;;;;;;51.92;21.98;;;;;;;4.68;94.31;97963.34;4975357;28;20078;-54
2023/01/04 07:15:53;;;;;;;78.80;31.63;;;;;;;4.86;92.89;97955.25;4964259;28;20054;-55
2023/01/04 07:18:20;;;;;;;71.95;32.75;;;;;;;4.93;92.44;97975.66;4970405;28;20617;-55
2023/01/04 07:20:47;;;;;;;60.63;28.98;;;;;;;4.85;92.74;97972.84;4975544;28;20109;-56
2023/01/04 07:23:14;;;;;;;71.68;29.80;;;;;;;4.80;93.78;97976.53;4983535;28;20065;-54
2023/01/04 07:25:40;;;;;;;70.03;28.05;;;;;;;5.04;93.62;97970.75;4983161;28;20082;-58
2023/01/04 07:28:07;;;;;;;58.53;24.95;;;;;;;5.22;91.75;97994.44;4970245;28;20051;-56
2023/01/04 07:30:34;;;;;;;42.05;20.50;;;;;;;5.12;91.23;97956.25;4971212;28;20055;-54
2023/01/04 07:33:01;;;;;;;45.20;21.95;;;;;;;5.06;91.12;97902.59;4964344;28;20462;-60
2023/01/04 07:35:28;;;;;;;42.78;22.40;;;;;;;5.66;91.48;97878.94;4963627;28;20530;-59
2023/01/04 07:37:54;;;;;;;50.67;27.13;;;;;;;5.77;90.27;97973.78;4964756;28;20057;-60
2023/01/04 07:40:25;;;;;;;58.38;32.15;;;;;;;5.97;89.91;97970.47;4979186;28;20039;-66
2023/01/04 07:42:56;;;;;;;70.88;35.90;;;;;;;6.15;90.17;97967.47;4963460;28;20046;-61
2023/01/04 07:45:23;;;;;;;80.25;40.83;;;;;;;5.61;89.93;97914.84;4962243;28;20094;-62
2023/01/04 07:47:50;;;;;;;80.50;42.40;;;;;;;6.67;90.74;97993.13;4974466;28;20047;-56
2023/01/04 07:50:16;;;;;;;90.18;45.78;;;;;;;6.97;89.79;97974.88;4964777;28;20046;-65
2023/01/04 07:52:43;;;;;;;102.00;49.25;;;;;;;6.74;89.56;97888.88;4966557;28;20469;-65
2023/01/04 07:55:10;;;;;;;105.10;52.03;;;;;;;7.32;88.74;97955.22;4965823;28;20055;-55
2023/01/04 07:57:36;;;;;;;103.03;50.20;;;;;;;7.67;87.10;97978.00;4969245;28;20323;-57
2023/01/04 08:00:04;;;;;;;78.03;43.95;;;;;;;7.85;86.22;97962.22;4973427;28;20046;-60
2023/01/04 08:02:31;;;;;;;80.45;42.60;;;;;;;8.20;85.04;97958.16;4967861;28;20055;-61
2023/01/04 08:04:57;;;;;;;78.38;42.33;;;;;;;8.45;85.25;97977.38;4976548;28;20138;-57
2023/01/04 08:07:24;;;;;;;69.65;37.75;;;;;;;8.61;84.98;97980.38;4986899;28;20073;-59
2023/01/04 08:09:51;;;;;;;61.67;33.63;;;;;;;8.85;84.41;97980.53;4983940;28;20046;-62
2023/01/04 08:12:17;;;;;;;50.50;29.25;;;;;;;8.98;83.81;97984.97;4967034;28;20051;-57
2023/01/04 08:14:44;;;;;;;42.35;26.05;;;;;;;8.86;84.29;97926.88;4975194;28;20149;-57
2023/01/04 08:17:10;;;;;;;37.00;21.83;;;;;;;9.25;84.33;97951.25;4972510;28;20493;-63
2023/01/04 08:19:37;;;;;;;41.63;25.00;;;;;;;9.57;82.61;97975.34;4981912;28;20058;-56
2023/01/04 08:22:04;;;;;;;50.58;31.05;;;;;;;9.74;82.28;97975.13;4981154;28;20047;-63
2023/01/04 08:24:30;;;;;;;59.85;34.22;;;;;;;9.64;80.59;97981.09;4976314;28;20046;-58
2023/01/04 08:26:58;;;;;;;51.10;30.65;;;;;;;8.99;84.14;97972.78;4968364;28;20050;-55
2023/01/04 08:29:24;;;;;;;59.25;30.02;;;;;;;8.91;84.93;97973.66;4967689;28;20469;-61
2023/01/04 08:32:00;;;;;;;53.17;28.38;;;;;;;8.96;85.33;97981.75;4977874;28;20062;-54
2023/01/04 08:34:26;;;;;;;46.15;24.98;;;;;;;8.61;88.43;97975.66;5002198;28;20076;-55
2023/01/04 08:36:53;;;;;;;39.92;22.95;;;;;;;8.50;88.50;97948.75;4996287;28;20041;-55
2023/01/04 08:39:20;;;;;;;48.88;23.42;;;;;;;8.64;89.40;97971.41;5006087;28;20189;-62
2023/01/04 08:41:50;;;;;;;45.60;24.52;;;;;;;8.91;87.68;97934.97;4999844;28;20300;-61
2023/01/04 08:44:37;;;;;;;41.65;23.98;;;;;;;9.31;84.36;97955.41;5005515;28;20052;-56
2023/01/04 08:47:03;;;;;;;47.60;23.73;;;;;;;9.62;82.42;97950.22;4993830;28;20054;-62
2023/01/04 08:49:30;;;;;;;38.10;21.38;;;;;;;9.55;84.28;97972.09;5002066;28;20052;-55
2023/01/04 08:51:57;;;;;;;37.78;19.52;;;;;;;9.59;84.92;97973.03;4998554;28;20045;-55
2023/01/04 08:54:23;;;;;;;35.05;19.58;;;;;;;10.00;81.94;97975.66;4988128;28;20056;-65
2023/01/04 08:56:50;;;;;;;29.02;15.20;;;;;;;10.25;80.50;97968.22;4990284;28;20140;-65
2023/01/04 08:59:17;;;;;;;22.80;13.93;;;;;;;10.48;80.30;97981.25;4985582;28;20116;-60
2023/01/04 09:01:44;;;;;;;24.00;14.57;;;;;;;10.46;79.76;97969.69;4991945;28;20057;-73
2023/01/04 09:04:11;;;;;;;21.23;14.43;;;;;;;10.49;81.20;97963.50;4984477;28;20069;-64
2023/01/04 09:06:38;;;;;;;18.48;12.30;;;;;;;10.56;79.81;97913.03;4986004;28;20143;-56
2023/01/04 09:09:05;;;;;;;16.50;10.23;;;;;;;11.08;79.10;97958.16;4989502;28;20144;-56
2023/01/04 09:11:32;;;;;;;16.35;10.13;;;;;;;10.91;77.90;97916.09;4997944;28;20511;-56
2023/01/04 09:14:00;;;;;;;17.25;11.13;;;;;;;11.19;78.33;97955.72;4988456;28;20155;-65
2023/01/04 09:16:36;;;;;;;23.92;11.50;;;;;;;10.92;79.34;97962.03;4995347;28;20054;-57
2023/01/04 09:19:04;;;;;;;16.17;9.90;;;;;;;10.67;78.64;97892.81;5001140;28;20070;-54
2023/01/04 09:21:30;;;;;;;23.77;14.57;;;;;;;11.44;78.62;97954.47;5004112;28;20077;-64
2023/01/04 09:23:57;;;;;;;16.85;10.88;;;;;;;11.66;76.52;97946.41;5003706;28;20053;-64
2023/01/04 09:26:25;;;;;;;16.85;10.05;;;;;;;11.92;75.41;97938.38;5004212;28;20054;-64
2023/01/04 09:28:53;;;;;;;14.57;10.18;;;;;;;11.94;75.48;97935.25;4993731;28;20124;-66
2023/01/04 09:31:22;;;;;;;17.63;9.82;;;;;;;12.25;75.67;97940.78;5002827;28;20128;-64
2023/01/04 09:33:49;;;;;;;17.77;10.95;;;;;;;12.53;74.51;97924.81;5005296;28;20061;-66
2023/01/04 09:36:36;;;;;;;15.88;10.57;;;;;;;12.42;72.48;97868.19;4989617;28;20137;-62
2023/01/04 09:39:02;;;;;;;17.30;10.02;;;;;;;12.67;72.03;97874.28;4981328;28;20512;-57
2023/01/04 09:41:34;;;;;;;23.05;13.43;;;;;;;11.64;70.55;97720.34;5001052;28;20061;-63
2023/01/04 09:44:22;;;;;;;31.02;17.50;;;;;;;10.70;70.55;97515.25;4994744;28;20548;-58
2023/01/04 09:46:53;;;;;;;22.50;11.90;;;;;;;13.43;69.78;97921.66;4990809;28;20516;-61
2023/01/04 09:49:37;;;;;;;16.20;9.98;;;;;;;13.44;68.87;97893.44;4984886;28;20050;-60
2023/01/04 09:52:17;;;;;;;16.33;9.93;;;;;;;13.29;68.28;97935.28;4983028;28;20077;-61
2023/01/04 09:54:43;;;;;;;11.50;8.48;;;;;;;13.31;69.24;97917.03;4990486;28;20062;-56
2023/01/04 09:57:26;;;;;;;14.57;9.18;;;;;;;13.52;68.79;97920.25;4983604;28;20054;-65
2023/01/04 10:00:05;;;;;;;13.38;8.65;;;;;;;13.74;68.24;97920.66;4981863;28;20135;-63
2023/01/04 10:02:43;;;;;;;20.27;10.93;;;;;;;13.95;67.73;97907.09;4983348;28;20058;-55
2023/01/04 10:05:25;;;;;;;16.65;10.35;;;;;;;14.02;66.76;97891.31;4987072;28;20124;-55
2023/01/04 10:07:52;;;;;;;13.80;8.07;;;;;;;14.10;65.67;97897.81;4984963;28;20058;-61
2023/01/04 10:10:42;;;;;;;17.92;9.65;;;;;;;14.12;64.68;97884.31;4991332;28;20535;-61
2023/01/04 10:13:26;;;;;;;13.10;7.57;;;;;;;14.16;65.34;97896.31;4987092;28;20124;-55
2023/01/04 10:15:56;;;;;;;;;;;;;;;14.18;65.46;97882.84;4997231;28;20135;-62
2023/01/04 10:18:46;;;;;;;13.98;9.15;;;;;;;14.47;65.60;97884.91;5003760;28;19936;-55
2023/01/04 10:21:50;;;;;;;13.98;9.13;;;;;;;14.62;64.06;97904.25;5003683;28;20076;-55
2023/01/04 10:24:38;;;;;;;16.88;8.90;;;;;;;14.73;62.92;97894.06;5003351;28;20531;-58
2023/01/04 10:27:20;;;;;;;14.18;8.15;;;;;;;14.17;62.49;97783.69;4994452;28;20432;-55
2023/01/04 10:29:56;;;;;;;15.68;9.35;;;;;;;14.73;62.54;97882.91;4984323;28;20508;-64
2023/01/04 10:32:40;;;;;;;14.50;8.32;;;;;;;14.59;62.53;97874.34;4998807;28;20531;-57
2023/01/04 10:35:20;;;;;;;19.42;10.23;;;;;;;14.69;62.99;97875.69;4992037;28;20053;-56
2023/01/04 10:37:56;;;;;;;13.02;8.40;;;;;;;14.89;62.95;97868.81;5003471;28;20046;-57
2023/01/04 10:40:25;;;;;;;12.15;8.32;;;;;;;14.67;61.14;97819.47;5004196;28;20088;-63
2023/01/04 10:43:06;;;;;;;15.38;10.32;;;;;;;15.06;61.10;97863.44;4998086;28;20511;-63
2023/01/04 10:45:51;;;;;;;12.35;8.60;;;;;;;14.36;63.20;97872.78;4984576;28;20066;-62
2023/01/04 10:48:23;;;;;;;14.10;8.85;;;;;;;14.57;63.12;97864.75;4985629;28;20053;-56
2023/01/04 10:50:59;;;;;;;14.57;8.30;;;;;;;14.58;62.58;97866.34;5003225;28;20108;-55
2023/01/04 10:53:44;;;;;;;19.25;11.80;;;;;;;14.74;62.43;97861.41;4999112;28;20054;-54
2023/01/04 10:56:44;;;;;;;13.27;8.82;;;;;;;15.01;61.83;97860.19;4983596;28;20055;-56
2023/01/04 10:59:22;;;;;;;14.85;8.98;;;;;;;14.69;62.83;97870.09;4982255;28;20050;-55
2023/01/04 11:02:16;;;;;;;10.80;8.57;;;;;;;14.48;62.34;97867.81;4979225;28;20139;-62
2023/01/04 11:05:08;;;;;;;14.80;10.32;;;;;;;14.61;63.60;97862.81;4985964;28;20337;-63
2023/01/04 11:07:37;;;;;;;13.05;9.20;;;;;;;14.42;64.07;97860.13;4986571;28;20551;-55
2023/01/04 11:10:16;;;;;;;22.02;11.80;;;;;;;14.60;63.97;97861.22;4984755;28;20505;-56
2023/01/04 11:12:44;;;;;;;18.40;10.07;;;;;;;14.81;63.65;97872.69;4985563;28;20567;-57
2023/01/04 11:15:11;;;;;;;12.80;9.35;;;;;;;14.67;62.63;97861.28;4978008;28;20203;-64
2023/01/04 11:17:40;;;;;;;14.85;10.98;;;;;;;14.78;63.59;97856.66;4987814;28;20046;-63
2023/01/04 11:20:07;;;;;;;12.38;8.77;;;;;;;14.72;62.53;97858.19;4991722;28;20061;-61
2023/01/04 11:22:43;;;;;;;16.90;10.80;;;;;;;14.72;62.87;97863.75;5002938;28;20531;-56
2023/01/04 11:25:14;;;;;;;16.75;9.38;;;;;;;14.67;61.20;97783.22;5001987;28;20181;-63
2023/01/04 11:28:36;;;;;;;9.93;8.50;;;;;;;14.69;61.26;97858.94;4998029;28;20486;-55
2023/01/04 11:31:19;;;;;;;18.83;10.55;;;;;;;14.88;62.48;97850.44;4983643;28;20054;-60
2023/01/04 11:33:56;;;;;;;13.77;9.05;;;;;;;15.10;61.33;97847.53;4998227;28;20146;-55
2023/01/04 11:36:46;;;;;;;13.88;8.30;;;;;;;15.35;60.39;97856.19;4986224;28;20163;-60
2023/01/04 11:39:24;;;;;;;12.65;9.13;;;;;;;15.36;59.43;97843.88;4987161;28;20414;-55
2023/01/04 11:41:59;;;;;;;16.23;9.55;;;;;;;14.81;60.81;97844.78;4997826;28;20042;-60
2023/01/04 11:44:34;;;;;;;19.75;9.35;;;;;;;14.85;60.94;97845.63;5005838;28;20073;-55
2023/01/04 11:47:23;;;;;;;19.58;12.45;;;;;;;14.99;60.34;97841.03;5005074;28;20062;-56
2023/01/04 11:49:54;;;;;;;17.58;9.75;;;;;;;15.35;58.98;97856.19;5003415;28;20053;-64
2023/01/04 11:52:35;;;;;;;15.13;8.93;;;;;;;15.39;57.94;97843.13;4993983;28;20050;-56
2023/01/04 11:55:28;;;;;;;16.83;8.10;;;;;;;15.03;60.03;97846.66;4999379;28;20468;-57
2023/01/04 11:58:15;;;;;;;16.60;8.77;;;;;;;15.06;60.17;97846.69;5000516;28;20053;-58
2023/01/04 12:00:54;;;;;;;11.95;8.38;;;;;;;14.82;60.34;97846.38;4993460;28;20137;-63
2023/01/04 12:03:36;;;;;;;19.08;11.15;;;;;;;14.61;63.23;97857.22;4998277;28;20576;-55
2023/01/04 12:06:21;;;;;;;19.67;11.35;;;;;;;14.50;63.83;97850.69;4986819;28;20046;-57
2023/01/04 12:08:48;;;;;;;23.45;14.30;;;;;;;14.50;64.37;97845.94;4986778;28;20070;-63
2023/01/04 12:11:38;;;;;;;24.30;14.07;;;;;;;14.51;64.47;97841.16;4973615;28;20066;-55
2023/01/04 12:14:33;;;;;;;17.83;11.82;;;;;;;14.60;64.21;97861.22;4987179;28;20054;-64
2023/01/04 12:17:32;;;;;;;21.48;12.82;;;;;;;14.53;64.31;97836.00;4987321;28;20054;-70
2023/01/04 12:20:14;;;;;;;23.27;12.00;;;;;;;14.39;64.34;97816.28;5005894;28;20049;-61
2023/01/04 12:22:46;;;;;;;25.67;14.52;;;;;;;14.30;65.58;97840.84;4996332;28;20046;-56
2023/01/04 12:25:31;;;;;;;18.90;11.82;;;;;;;14.38;64.82;97842.56;4997257;28;20152;-57
2023/01/04 12:27:57;;;;;;;18.55;11.93;;;;;;;14.40;65.33;97843.78;4990598;28;20050;-64
2023/01/04 12:30:44;;;;;;;21.30;14.25;;;;;;;14.30;64.93;97824.13;4985817;28;20136;-61